createdAt,value
2023-03-02T00:01:52.624Z,8.60
2023-03-02T00:04:45.792Z,9.20
2023-03-02T00:07:16.966Z,10.35
2023-03-02T00:09:44.572Z,11.07
2023-03-02T00:12:13.086Z,9.57
2023-03-02T00:14:40.439Z,10.70
2023-03-02T00:17:10.940Z,9.90
2023-03-02T00:19:39.060Z,11.05
2023-03-02T00:22:06.610Z,10.75
2023-03-02T00:24:33.950Z,10.40
2023-03-02T00:27:01.218Z,10.40
2023-03-02T00:29:29.607Z,11.65
2023-03-02T00:31:57.152Z,10.18
2023-03-02T00:34:24.400Z,11.60
2023-03-02T00:36:51.582Z,10.18
2023-03-02T00:39:20.296Z,10.75
2023-03-02T00:41:48.712Z,11.45
2023-03-02T00:44:19.743Z,10.88
2023-03-02T00:46:47.087Z,11.77
2023-03-02T00:49:14.860Z,10.70
2023-03-02T00:51:42.055Z,11.85
2023-03-02T00:54:09.530Z,12.30
2023-03-02T00:56:37.261Z,12.55
2023-03-02T00:59:11.185Z,12.35
2023-03-02T01:01:38.878Z,13.68
2023-03-02T01:04:06.285Z,13.45
2023-03-02T01:06:33.913Z,14.30
2023-03-02T01:09:03.239Z,15.32
2023-03-02T01:11:30.544Z,14.85
2023-03-02T01:13:57.808Z,15.60
2023-03-02T01:16:25.066Z,16.17
2023-03-02T01:18:52.307Z,15.10
2023-03-02T01:21:19.647Z,16.20
2023-03-02T01:23:46.879Z,16.50
2023-03-02T01:26:14.124Z,16.52
2023-03-02T01:28:41.529Z,16.92
2023-03-02T01:31:08.839Z,18.05
2023-03-02T01:33:36.430Z,17.77
2023-03-02T01:36:04.217Z,17.02
2023-03-02T01:38:31.554Z,18.27
2023-03-02T01:40:59.003Z,17.42
2023-03-02T01:43:26.567Z,18.33
2023-03-02T01:45:57.414Z,19.45
2023-03-02T01:48:46.080Z,18.92
2023-03-02T01:51:21.142Z,16.40
2023-03-02T01:53:54.549Z,19.98
2023-03-02T01:56:34.963Z,19.85
2023-03-02T01:59:07.737Z,21.43
2023-03-02T02:01:37.689Z,21.38
2023-03-02T02:04:06.462Z,22.42
2023-03-02T02:06:54.189Z,23.02
2023-03-02T02:09:24.396Z,22.05
2023-03-02T02:11:52.582Z,23.25
2023-03-02T02:14:20.354Z,23.70
2023-03-02T02:16:48.755Z,25.30
2023-03-02T02:19:38.536Z,26.88
2023-03-02T02:22:06.176Z,26.63
2023-03-02T02:24:45.237Z,26.65
2023-03-02T02:27:13.671Z,26.42
2023-03-02T02:29:49.623Z,27.25
2023-03-02T02:32:26.636Z,28.38
2023-03-02T02:35:01.151Z,28.85
2023-03-02T02:37:32.336Z,28.20
2023-03-02T02:40:07.333Z,27.65
2023-03-02T02:42:43.466Z,28.33
2023-03-02T02:45:24.394Z,29.58
2023-03-02T02:50:30.991Z,28.25
2023-03-02T02:53:06.521Z,30.85
2023-03-02T02:55:35.516Z,29.15
2023-03-02T02:58:10.226Z,30.92
2023-03-02T03:00:37.771Z,30.48
2023-03-02T03:03:29.467Z,31.85
2023-03-02T03:06:01.661Z,31.92
2023-03-02T03:09:00.894Z,31.85
2023-03-02T03:11:49.021Z,31.15
2023-03-02T03:14:20.188Z,33.10
2023-03-02T03:16:51.103Z,28.48
2023-03-02T03:19:18.629Z,30.80
2023-03-02T03:21:48.961Z,30.35
2023-03-02T03:24:16.804Z,30.38
2023-03-02T03:26:44.422Z,27.17
2023-03-02T03:29:14.239Z,32.05
2023-03-02T03:31:41.817Z,30.52
2023-03-02T03:34:10.253Z,29.23
2023-03-02T03:36:38.445Z,28.30
2023-03-02T03:39:06.565Z,28.08
2023-03-02T03:41:34.872Z,29.05
2023-03-02T03:44:03.495Z,27.52
2023-03-02T03:46:34.202Z,27.50
2023-03-02T03:49:02.518Z,26.90
2023-03-02T03:51:35.162Z,27.88
2023-03-02T03:54:06.061Z,26.65
2023-03-02T03:56:44.938Z,28.38
2023-03-02T03:59:23.348Z,33.15
2023-03-02T04:01:58.646Z,29.10
2023-03-02T04:04:33.468Z,30.00
2023-03-02T04:07:03.299Z,26.30
2023-03-02T04:09:32.321Z,25.45
2023-03-02T04:11:59.996Z,25.15
2023-03-02T04:14:28.188Z,24.65
2023-03-02T04:16:56.529Z,24.05
2023-03-02T04:19:26.173Z,25.15
2023-03-02T04:21:58.476Z,23.33
2023-03-02T04:24:29.258Z,23.70
2023-03-02T04:26:59.875Z,23.08
2023-03-02T04:29:27.461Z,22.38
2023-03-02T04:31:55.060Z,20.77
2023-03-02T04:34:25.678Z,26.92
2023-03-02T04:36:54.350Z,22.95
2023-03-02T04:39:22.324Z,24.88
2023-03-02T04:41:52.827Z,23.73
2023-03-02T04:44:20.652Z,26.63
2023-03-02T04:46:49.643Z,22.83
2023-03-02T04:49:19.115Z,25.13
2023-03-02T04:51:48.403Z,24.00
2023-03-02T04:54:22.274Z,24.10
2023-03-02T04:56:51.625Z,28.85
2023-03-02T04:59:20.991Z,25.10
2023-03-02T05:01:49.578Z,21.50
2023-03-02T05:04:16.984Z,22.70
2023-03-02T05:06:44.612Z,24.05
2023-03-02T05:09:12.264Z,26.98
2023-03-02T05:11:41.147Z,22.73
2023-03-02T05:14:11.894Z,26.63
2023-03-02T05:16:41.540Z,25.63
2023-03-02T05:19:11.533Z,29.10
2023-03-02T05:21:39.493Z,26.08
2023-03-02T05:24:07.090Z,24.90
2023-03-02T05:26:34.651Z,28.77
2023-03-02T05:29:02.086Z,33.05
2023-03-02T05:31:55.869Z,36.10
2023-03-02T05:34:23.202Z,28.13
2023-03-02T05:36:51.815Z,41.45
2023-03-02T05:39:19.271Z,32.05
2023-03-02T05:41:46.542Z,32.15
2023-03-02T05:44:13.874Z,37.75
2023-03-02T05:46:41.693Z,35.47
2023-03-02T05:49:09.103Z,32.65
2023-03-02T05:51:36.330Z,31.10
2023-03-02T05:54:03.757Z,36.63
2023-03-02T05:56:31.507Z,33.10
2023-03-02T05:58:59.032Z,33.58
2023-03-02T06:01:26.289Z,35.58
2023-03-02T06:03:53.540Z,32.10
2023-03-02T06:06:20.791Z,32.92
2023-03-02T06:08:48.244Z,31.50
2023-03-02T06:11:15.495Z,33.63
2023-03-02T06:13:42.712Z,33.95
2023-03-02T06:16:10.818Z,33.90
2023-03-02T06:18:41.232Z,32.30
2023-03-02T06:21:09.008Z,29.83
2023-03-02T06:23:36.431Z,34.95
2023-03-02T06:26:12.090Z,30.55
2023-03-02T06:28:51.500Z,36.35
2023-03-02T06:31:19.995Z,34.17
2023-03-02T06:33:47.323Z,30.38
2023-03-02T06:36:17.370Z,32.90
2023-03-02T06:38:44.671Z,35.97
2023-03-02T06:41:11.993Z,38.55
2023-03-02T06:43:39.813Z,33.45
2023-03-02T06:46:07.210Z,26.58
2023-03-02T06:48:34.586Z,30.95
2023-03-02T06:51:01.943Z,28.23
2023-03-02T06:53:29.691Z,28.73
2023-03-02T06:55:57.061Z,29.65
2023-03-02T06:58:24.535Z,26.58
2023-03-02T07:00:51.886Z,22.05
2023-03-02T07:03:19.258Z,28.20
2023-03-02T07:05:48.973Z,28.48
2023-03-02T07:08:16.478Z,26.88
2023-03-02T07:10:43.938Z,24.65
2023-03-02T07:13:11.238Z,23.90
2023-03-02T07:15:41.730Z,21.10
2023-03-02T07:18:09.137Z,20.25
2023-03-02T07:20:36.699Z,21.00
2023-03-02T07:23:05.446Z,21.98
2023-03-02T07:25:33.590Z,19.70
2023-03-02T07:28:00.844Z,19.30
2023-03-02T07:30:28.358Z,21.27
2023-03-02T07:32:55.675Z,19.67
2023-03-02T07:35:23.144Z,23.00
2023-03-02T07:37:52.275Z,25.45
2023-03-02T07:40:20.599Z,21.15
2023-03-02T07:42:47.900Z,23.42
2023-03-02T07:45:16.937Z,25.02
2023-03-02T07:47:44.256Z,24.38
2023-03-02T07:50:12.437Z,21.88
2023-03-02T07:52:40.106Z,21.45
2023-03-02T07:55:07.798Z,21.83
2023-03-02T07:57:35.273Z,22.52
2023-03-02T08:00:04.055Z,23.27
2023-03-02T08:02:41.072Z,22.88
2023-03-02T08:05:09.871Z,20.45
2023-03-02T08:07:37.570Z,23.20
2023-03-02T08:10:05.713Z,27.55
2023-03-02T08:12:35.750Z,24.60
2023-03-02T08:15:04.950Z,24.30
2023-03-02T08:17:32.824Z,26.80
2023-03-02T08:20:00.239Z,19.90
2023-03-02T08:22:27.566Z,22.02
2023-03-02T08:24:54.970Z,19.83
2023-03-02T08:27:23.523Z,19.50
2023-03-02T08:29:50.915Z,16.08
2023-03-02T08:32:18.345Z,18.17
2023-03-02T08:34:45.874Z,20.35
2023-03-02T08:37:13.111Z,17.25
2023-03-02T08:39:40.332Z,16.42
2023-03-02T08:42:08.222Z,15.13
2023-03-02T08:44:35.727Z,16.08
2023-03-02T08:47:03.191Z,18.23
2023-03-02T08:49:30.811Z,15.65
2023-03-02T08:51:59.474Z,15.32
2023-03-02T08:54:29.345Z,17.48
2023-03-02T08:56:56.618Z,14.07
2023-03-02T08:59:24.069Z,16.05
2023-03-02T09:01:53.055Z,15.95
2023-03-02T09:04:20.401Z,15.85
2023-03-02T09:06:48.658Z,15.00
2023-03-02T09:09:15.945Z,14.10
2023-03-02T09:11:44.857Z,14.57
2023-03-02T09:14:12.888Z,14.27
2023-03-02T09:16:40.278Z,16.20
2023-03-02T09:19:07.630Z,15.75
2023-03-02T09:21:35.444Z,14.40
2023-03-02T09:24:03.139Z,14.65
2023-03-02T09:26:30.591Z,14.98
2023-03-02T09:28:57.884Z,14.20
2023-03-02T09:31:25.399Z,14.60
2023-03-02T09:33:52.861Z,15.63
2023-03-02T09:36:23.736Z,14.23
2023-03-02T09:38:51.587Z,15.27
2023-03-02T09:41:21.850Z,13.73
2023-03-02T09:44:31.341Z,15.15
2023-03-02T09:47:34.840Z,13.63
2023-03-02T09:50:11.699Z,13.90
2023-03-02T09:52:49.069Z,13.23
2023-03-02T09:55:25.218Z,13.60
2023-03-02T09:57:55.036Z,14.15
2023-03-02T10:00:29.139Z,14.93
2023-03-02T10:03:16.197Z,12.85
2023-03-02T10:05:50.411Z,13.52
2023-03-02T10:08:46.883Z,13.45
2023-03-02T10:11:39.650Z,14.02
2023-03-02T10:14:23.637Z,12.70
2023-03-02T10:17:28.498Z,12.05
2023-03-02T10:20:14.883Z,11.82
2023-03-02T10:22:50.534Z,11.50
2023-03-02T10:25:43.614Z,10.85
2023-03-02T10:28:19.205Z,11.52
2023-03-02T10:31:00.956Z,10.55
2023-03-02T10:33:29.527Z,10.02
2023-03-02T10:35:56.787Z,9.93
2023-03-02T10:38:25.230Z,11.15
2023-03-02T10:41:00.463Z,9.77
2023-03-02T10:43:32.229Z,9.88
2023-03-02T10:46:04.932Z,10.82
2023-03-02T10:48:32.291Z,10.80
2023-03-02T10:51:00.566Z,9.85
2023-03-02T10:53:29.250Z,10.48
2023-03-02T10:55:56.594Z,10.70
2023-03-02T10:58:32.931Z,12.00
2023-03-02T11:01:15.077Z,10.40
2023-03-02T11:03:42.603Z,11.30
2023-03-02T11:06:29.786Z,10.57
2023-03-02T11:09:00.185Z,11.00
2023-03-02T11:11:27.843Z,11.90
2023-03-02T11:13:56.882Z,11.82
2023-03-02T11:16:32.491Z,17.20
2023-03-02T11:19:32.062Z,11.07
2023-03-02T11:22:37.317Z,10.98
2023-03-02T11:25:12.746Z,10.90
2023-03-02T11:27:43.163Z,10.38
2023-03-02T11:30:16.074Z,10.85
2023-03-02T11:32:54.604Z,10.57
2023-03-02T11:35:28.896Z,9.60
2023-03-02T11:38:04.276Z,10.32
2023-03-02T11:40:47.147Z,10.85
2023-03-02T11:43:15.072Z,9.80
2023-03-02T11:45:51.337Z,9.52
2023-03-02T11:48:29.339Z,10.85
2023-03-02T11:51:06.746Z,10.35
2023-03-02T11:53:43.847Z,10.50
2023-03-02T11:56:11.335Z,11.52
2023-03-02T11:58:39.719Z,11.30
2023-03-02T12:01:13.043Z,10.95
2023-03-02T12:03:41.959Z,11.45
2023-03-02T12:06:22.770Z,11.05
2023-03-02T12:08:53.112Z,10.40
2023-03-02T12:11:20.427Z,11.30
2023-03-02T12:14:02.198Z,10.27
2023-03-02T12:16:41.646Z,10.82
2023-03-02T12:19:17.993Z,11.30
2023-03-02T12:22:00.771Z,10.85
2023-03-02T12:24:31.608Z,10.45
2023-03-02T12:30:23.754Z,11.00
2023-03-02T12:33:03.985Z,10.48
2023-03-02T12:35:34.042Z,11.25
2023-03-02T12:38:07.366Z,10.48
2023-03-02T12:40:56.201Z,11.65
2023-03-02T12:43:27.151Z,10.32
2023-03-02T12:46:36.121Z,11.10
2023-03-02T12:49:44.169Z,10.07
2023-03-02T12:52:37.709Z,9.93
2023-03-02T12:55:15.649Z,10.13
2023-03-02T12:57:51.538Z,10.13
2023-03-02T13:00:26.950Z,9.68
2023-03-02T13:02:57.184Z,11.10
2023-03-02T13:05:28.008Z,10.70
2023-03-02T13:08:00.921Z,10.48
2023-03-02T13:10:38.038Z,10.50
2023-03-02T13:13:26.865Z,10.60
2023-03-02T13:15:59.410Z,12.20
2023-03-02T13:18:32.290Z,11.95
2023-03-02T13:21:01.450Z,12.80
2023-03-02T13:23:34.014Z,12.63
2023-03-02T13:26:05.379Z,12.20
2023-03-02T13:31:07.112Z,11.85
2023-03-02T13:33:44.236Z,12.35
2023-03-02T13:36:20.288Z,11.05
2023-03-02T13:38:59.722Z,11.13
2023-03-02T13:41:31.389Z,10.40
2023-03-02T13:44:16.629Z,10.75
2023-03-02T13:46:43.896Z,9.88
2023-03-02T13:49:11.921Z,9.32
2023-03-02T13:51:45.335Z,9.32
2023-03-02T13:54:34.645Z,9.50
2023-03-02T13:57:05.046Z,10.60
2023-03-02T13:59:36.488Z,10.48
2023-03-02T14:02:27.622Z,8.90
2023-03-02T14:04:55.795Z,8.65
2023-03-02T14:07:23.485Z,9.10
2023-03-02T14:09:51.171Z,9.25
2023-03-02T14:12:29.346Z,8.00
2023-03-02T14:15:00.327Z,8.20
2023-03-02T14:17:28.315Z,9.30
2023-03-02T14:19:56.571Z,8.93
2023-03-02T14:22:27.444Z,9.13
2023-03-02T14:24:58.057Z,8.48
2023-03-02T14:27:29.756Z,8.02
2023-03-02T14:29:57.569Z,8.70
2023-03-02T14:32:24.891Z,8.57
2023-03-02T14:34:52.425Z,9.27
2023-03-02T14:37:24.544Z,8.40
2023-03-02T14:39:55.610Z,9.40
2023-03-02T14:42:25.281Z,8.90
2023-03-02T14:44:53.099Z,8.63
2023-03-02T14:47:21.904Z,9.57
2023-03-02T14:49:49.507Z,9.25
2023-03-02T14:52:25.197Z,9.38
2023-03-02T14:54:58.728Z,9.25
2023-03-02T14:57:28.846Z,9.52
2023-03-02T14:59:59.785Z,8.63
2023-03-02T15:02:27.508Z,8.88
2023-03-02T15:04:57.309Z,9.45
2023-03-02T15:07:28.094Z,8.68
2023-03-02T15:09:57.025Z,8.52
2023-03-02T15:12:25.218Z,7.97
2023-03-02T15:14:52.770Z,8.52
2023-03-02T15:17:20.052Z,9.18
2023-03-02T15:19:47.554Z,8.32
2023-03-02T15:22:14.982Z,10.32
2023-03-02T15:24:42.496Z,9.20
2023-03-02T15:27:10.503Z,9.85
2023-03-02T15:29:37.874Z,10.20
2023-03-02T15:32:05.486Z,10.80
2023-03-02T15:34:32.847Z,10.93
2023-03-02T15:37:00.179Z,11.15
2023-03-02T15:39:27.506Z,12.02
2023-03-02T15:41:55.209Z,11.52
2023-03-02T15:44:24.448Z,10.65
2023-03-02T15:46:57.462Z,10.27
2023-03-02T15:49:28.007Z,10.52
2023-03-02T15:51:59.648Z,10.15
2023-03-02T15:54:28.262Z,10.77
2023-03-02T15:56:55.765Z,10.57
2023-03-02T15:59:25.204Z,10.38
2023-03-02T16:01:53.629Z,10.30
2023-03-02T16:04:21.322Z,10.25
2023-03-02T16:06:48.973Z,9.48
2023-03-02T16:09:17.914Z,10.45
2023-03-02T16:11:45.207Z,9.52
2023-03-02T16:14:15.636Z,9.90
2023-03-02T16:16:44.194Z,9.90
2023-03-02T16:19:14.075Z,9.13
2023-03-02T16:21:41.850Z,8.85
2023-03-02T16:24:09.539Z,8.68
2023-03-02T16:26:38.193Z,8.63
2023-03-02T16:29:08.104Z,8.38
2023-03-02T16:31:37.906Z,8.90
2023-03-02T16:34:08.416Z,8.85
2023-03-02T16:36:38.058Z,9.77
2023-03-02T16:39:06.647Z,7.97
2023-03-02T16:41:34.733Z,8.65
2023-03-02T16:44:02.208Z,7.70
2023-03-02T16:46:31.390Z,7.75
2023-03-02T16:48:58.942Z,8.35
2023-03-02T16:51:26.276Z,8.35
2023-03-02T16:53:54.669Z,9.13
2023-03-02T16:56:21.960Z,9.38
2023-03-02T16:58:51.289Z,10.18
2023-03-02T17:01:20.957Z,9.77
2023-03-02T17:03:49.995Z,9.73
2023-03-02T17:06:19.635Z,9.25
2023-03-02T17:08:47.149Z,9.98
2023-03-02T17:11:14.645Z,8.82
2023-03-02T17:13:44.591Z,9.57
2023-03-02T17:16:13.590Z,9.88
2023-03-02T17:18:41.153Z,10.10
2023-03-02T17:21:08.710Z,8.82
2023-03-02T17:23:37.103Z,9.80
2023-03-02T17:26:07.908Z,10.43
2023-03-02T17:31:04.321Z,10.60
2023-03-02T17:33:33.940Z,10.20
2023-03-02T17:36:07.431Z,9.98
2023-03-02T17:38:34.794Z,9.98
2023-03-02T17:41:07.190Z,9.98
2023-03-02T17:43:40.983Z,10.77
2023-03-02T17:46:15.718Z,11.20
2023-03-02T17:48:44.699Z,11.35
2023-03-02T17:51:14.828Z,11.77
2023-03-02T17:53:44.234Z,12.07
2023-03-02T17:56:13.123Z,11.85
2023-03-02T17:58:45.089Z,12.18
2023-03-02T18:01:15.774Z,11.23
2023-03-02T18:03:45.134Z,10.98
2023-03-02T18:06:13.445Z,11.73
2023-03-02T18:08:41.026Z,11.05
2023-03-02T18:11:08.330Z,11.55
2023-03-02T18:13:35.935Z,12.18
2023-03-02T18:16:04.210Z,12.50
2023-03-02T18:18:31.532Z,12.90
2023-03-02T18:20:58.857Z,12.68
2023-03-02T18:23:26.248Z,12.93
2023-03-02T18:25:53.484Z,13.27
2023-03-02T18:28:21.387Z,14.93
2023-03-02T18:30:49.385Z,14.20
2023-03-02T18:33:16.602Z,13.85
2023-03-02T18:35:45.943Z,14.45
2023-03-02T18:38:13.271Z,15.18
2023-03-02T18:40:40.643Z,14.70
2023-03-02T18:43:08.276Z,15.25
2023-03-02T18:45:35.696Z,13.18
2023-03-02T18:48:04.802Z,13.65
2023-03-02T18:50:32.291Z,12.60
2023-03-02T18:53:00.962Z,14.27
2023-03-02T18:55:29.357Z,13.77
2023-03-02T18:57:56.664Z,13.80
2023-03-02T19:00:27.797Z,13.68
2023-03-02T19:02:56.927Z,14.52
2023-03-02T19:05:27.019Z,13.63
2023-03-02T19:07:54.880Z,14.70
2023-03-02T19:10:22.533Z,13.23
2023-03-02T19:12:50.761Z,14.30
2023-03-02T19:15:18.985Z,14.52
2023-03-02T19:17:47.186Z,15.07
2023-03-02T19:20:16.753Z,15.30
2023-03-02T19:22:44.049Z,15.77
2023-03-02T19:25:11.644Z,15.35
2023-03-02T19:27:39.846Z,14.32
2023-03-02T19:30:09.110Z,15.02
2023-03-02T19:32:37.437Z,14.55
2023-03-02T19:35:05.276Z,15.75
2023-03-02T19:37:33.439Z,13.77
2023-03-02T19:40:01.483Z,16.02
2023-03-02T19:42:30.431Z,15.55
2023-03-02T19:44:58.024Z,15.07
2023-03-02T19:47:25.453Z,14.18
2023-03-02T19:49:52.943Z,15.95
2023-03-02T19:52:20.295Z,16.23
2023-03-02T19:54:47.551Z,15.32
2023-03-02T19:57:14.817Z,15.70
2023-03-02T19:59:42.414Z,16.90
2023-03-02T20:02:09.860Z,15.57
2023-03-02T20:04:38.307Z,16.88
2023-03-02T20:07:05.647Z,15.63
2023-03-02T20:09:32.816Z,15.95
2023-03-02T20:12:02.445Z,15.32
2023-03-02T20:14:34.171Z,18.13
2023-03-02T20:17:04.908Z,17.02
2023-03-02T20:19:32.134Z,17.65
2023-03-02T20:21:59.442Z,16.58
2023-03-02T20:24:26.890Z,17.08
2023-03-02T20:26:54.847Z,20.20
2023-03-02T20:29:22.167Z,18.08
2023-03-02T20:31:49.567Z,18.52
2023-03-02T20:34:16.993Z,18.92
2023-03-02T20:36:44.780Z,18.38
2023-03-02T20:39:43.203Z,16.25
2023-03-02T20:42:12.250Z,17.25
2023-03-02T20:44:39.794Z,18.58
2023-03-02T20:47:09.831Z,16.92
2023-03-02T20:49:38.036Z,17.52
2023-03-02T20:52:05.922Z,18.55
2023-03-02T20:54:37.204Z,19.02
2023-03-02T20:57:06.131Z,18.10
2023-03-02T20:59:33.426Z,18.58
2023-03-02T21:02:00.904Z,18.83
2023-03-02T21:04:28.730Z,19.92
2023-03-02T21:06:56.231Z,19.25
2023-03-02T21:09:23.637Z,20.27
2023-03-02T21:11:51.180Z,21.27
2023-03-02T21:14:19.138Z,21.23
2023-03-02T21:16:46.660Z,21.25
2023-03-02T21:19:17.360Z,20.80
2023-03-02T21:24:17.049Z,24.15
2023-03-02T21:26:49.839Z,21.55
2023-03-02T21:29:20.063Z,20.35
2023-03-02T21:31:47.935Z,22.27
2023-03-02T21:34:16.138Z,21.90
2023-03-02T21:36:43.542Z,22.90
2023-03-02T21:39:12.144Z,21.98
2023-03-02T21:41:40.505Z,23.73
2023-03-02T21:44:08.424Z,26.67
2023-03-02T21:46:39.178Z,23.98
2023-03-02T21:49:22.349Z,26.02
2023-03-02T21:51:50.628Z,27.60
2023-03-02T21:54:18.178Z,29.83
2023-03-02T21:56:51.521Z,21.88
2023-03-02T21:59:19.128Z,26.75
2023-03-02T22:01:47.000Z,29.75
2023-03-02T22:04:17.885Z,31.45
2023-03-02T22:06:45.297Z,26.27
2023-03-02T22:09:12.783Z,31.20
2023-03-02T22:11:40.374Z,27.90
2023-03-02T22:14:15.453Z,22.92
2023-03-02T22:16:46.430Z,28.17
2023-03-02T22:19:32.817Z,26.50
2023-03-02T22:22:03.262Z,31.33
2023-03-02T22:24:35.627Z,23.27
2023-03-02T22:27:27.726Z,28.08
2023-03-02T22:29:59.025Z,22.92
2023-03-02T22:32:28.101Z,24.30
2023-03-02T22:34:57.910Z,39.88
2023-03-02T22:37:30.674Z,17.63
2023-03-02T22:40:02.080Z,26.35
2023-03-02T22:42:30.961Z,23.70
2023-03-02T22:45:17.299Z,30.98
2023-03-02T22:47:49.260Z,20.73
2023-03-02T22:50:27.902Z,26.20
2023-03-02T22:53:00.456Z,20.77
2023-03-02T22:55:30.932Z,25.40
2023-03-02T22:57:58.500Z,21.15
2023-03-02T23:00:33.584Z,23.25
2023-03-02T23:03:00.909Z,24.95
2023-03-02T23:05:31.019Z,22.38
2023-03-02T23:08:22.562Z,19.60
2023-03-02T23:10:52.461Z,18.83
2023-03-02T23:13:25.181Z,19.95
2023-03-02T23:15:55.252Z,20.95
2023-03-02T23:18:25.678Z,22.50
2023-03-02T23:20:53.719Z,24.23
2023-03-02T23:23:24.276Z,19.45
2023-03-02T23:25:51.852Z,23.80
2023-03-02T23:28:19.223Z,18.77
2023-03-02T23:30:47.624Z,20.05
2023-03-02T23:33:14.864Z,26.48
2023-03-02T23:35:42.505Z,21.08
2023-03-02T23:38:10.035Z,19.05
2023-03-02T23:40:37.387Z,19.73
2023-03-02T23:43:04.650Z,20.33
2023-03-02T23:45:33.332Z,18.42
2023-03-02T23:48:00.617Z,17.92
2023-03-02T23:50:27.965Z,16.35
2023-03-02T23:52:55.193Z,21.55
2023-03-02T23:55:22.574Z,15.43
2023-03-02T23:57:49.848Z,16.67
